Terminal Aerodrome Forecast
Issued by NWS Billings, MT

Home | Current Version | Previous Version | Graphics & Text | Print | Product List | Glossary On
Versions: 1 2 3 4 5 6 7 8 9 10 11 12 13 14 15 16 17 18 19 20 21 22 23 24 25 26 27 28 29 30 31
000
FTUS45 KBYZ 290917 AAB
TAFMLS
TAF AMD
KMLS 290917Z 2909/3006 03012G21KT P6SM VCSH SCT100
     FM291100 31012KT P6SM VCSH FEW040 BKN100
     FM291300 32014KT P6SM BKN035
     FM292100 07006KT P6SM BKN040=

USA.gov is the U.S. government's official web portal to all federal, state and local government web resources and services.